createdAt,value
2022-09-01T00:00:50.375Z,28
2022-09-01T00:03:23.115Z,26
2022-09-01T00:05:56.231Z,30
2022-09-01T00:08:29.023Z,31
2022-09-01T00:11:02.077Z,32
2022-09-01T00:13:34.899Z,29
2022-09-01T00:16:08.165Z,27
2022-09-01T00:18:40.847Z,27
2022-09-01T00:21:13.307Z,24
2022-09-01T00:23:46.275Z,29
2022-09-01T00:26:18.297Z,26
2022-09-01T00:28:51.083Z,32
2022-09-01T00:31:24.275Z,28
2022-09-01T00:33:56.110Z,29
2022-09-01T00:36:28.501Z,24
2022-09-01T00:39:04.523Z,26
2022-09-01T00:41:37.057Z,29
2022-09-01T00:44:09.687Z,29
2022-09-01T00:46:56.014Z,25
2022-09-01T00:49:27.248Z,29
2022-09-01T00:51:59.667Z,29
2022-09-01T00:54:32.593Z,27
2022-09-01T00:57:05.164Z,28
2022-09-01T00:59:37.900Z,29
2022-09-01T01:02:09.116Z,32
2022-09-01T01:04:41.355Z,29
2022-09-01T01:07:14.108Z,31
2022-09-01T01:09:46.700Z,29
2022-09-01T01:12:19.360Z,28
2022-09-01T01:14:52.041Z,28
2022-09-01T01:17:24.854Z,33
2022-09-01T01:23:02.131Z,31
2022-09-01T01:25:35.372Z,28
2022-09-01T01:28:07.736Z,29
2022-09-01T01:30:40.490Z,32
2022-09-01T01:33:13.074Z,28
2022-09-01T01:35:45.967Z,29
2022-09-01T01:38:21.325Z,28
2022-09-01T01:40:54.388Z,31
2022-09-01T01:43:26.891Z,28
2022-09-01T01:45:59.662Z,31
2022-09-01T01:48:31.945Z,27
2022-09-01T01:51:04.444Z,29
2022-09-01T01:53:40.055Z,24
2022-09-01T01:56:12.405Z,29
2022-09-01T01:58:43.536Z,28
2022-09-01T02:01:16.115Z,32
2022-09-01T02:03:49.036Z,24
2022-09-01T02:06:19.904Z,30
2022-09-01T02:08:52.853Z,27
2022-09-01T02:11:26.314Z,27
2022-09-01T02:13:59.020Z,29
2022-09-01T02:16:31.748Z,27
2022-09-01T02:19:02.920Z,26
2022-09-01T02:21:35.440Z,31
2022-09-01T02:24:08.260Z,31
2022-09-01T02:26:41.320Z,28
2022-09-01T02:29:15.082Z,20
2022-09-01T02:31:47.601Z,28
2022-09-01T02:34:21.371Z,28
2022-09-01T02:36:54.213Z,28
2022-09-01T02:39:26.962Z,28
2022-09-01T02:41:59.633Z,32
2022-09-01T02:44:31.942Z,32
2022-09-01T02:47:05.056Z,32
2022-09-01T02:49:37.842Z,32
2022-09-01T02:52:14.200Z,36
2022-09-01T02:54:46.427Z,28
2022-09-01T02:57:18.570Z,36
2022-09-01T02:59:50.570Z,29
2022-09-01T03:02:22.809Z,35
2022-09-01T03:04:55.857Z,31
2022-09-01T03:07:28.492Z,32
2022-09-01T03:10:00.943Z,33
2022-09-01T03:12:33.683Z,35
2022-09-01T03:15:13.407Z,28
2022-09-01T03:17:44.439Z,33
2022-09-01T03:20:16.854Z,31
2022-09-01T03:22:49.542Z,27
2022-09-01T03:25:22.097Z,28
2022-09-01T03:27:54.422Z,31
2022-09-01T03:30:27.037Z,42
2022-09-01T03:32:59.444Z,41
2022-09-01T03:35:32.328Z,40
2022-09-01T03:38:04.665Z,40
2022-09-01T03:40:37.691Z,36
2022-09-01T03:43:10.009Z,37
2022-09-01T03:45:43.020Z,41
2022-09-01T03:48:15.374Z,45
2022-09-01T03:50:47.944Z,47
2022-09-01T03:53:20.484Z,37
2022-09-01T03:55:53.577Z,40
2022-09-01T03:58:26.940Z,41
2022-09-01T04:00:59.630Z,37
2022-09-01T04:03:32.212Z,32
2022-09-01T04:06:05.444Z,36
2022-09-01T04:08:38.073Z,37
2022-09-01T04:11:11.400Z,35
2022-09-01T04:13:44.442Z,35
2022-09-01T04:16:17.322Z,34
2022-09-01T04:18:49.841Z,34
2022-09-01T04:21:22.582Z,37
2022-09-01T04:23:55.692Z,36
2022-09-01T04:26:28.639Z,42
2022-09-01T04:29:04.511Z,38
2022-09-01T04:31:37.922Z,35
2022-09-01T04:34:11.031Z,36
2022-09-01T04:36:43.950Z,46
2022-09-01T04:39:17.322Z,40
2022-09-01T04:41:50.764Z,40
2022-09-01T04:44:24.039Z,41
2022-09-01T04:46:57.117Z,44
2022-09-01T04:49:29.649Z,45
2022-09-01T04:52:02.961Z,42
2022-09-01T04:54:36.705Z,41
2022-09-01T04:57:09.865Z,44
2022-09-01T04:59:43.035Z,44
2022-09-01T05:02:16.651Z,44
2022-09-01T05:04:49.763Z,48
2022-09-01T05:07:22.488Z,41
2022-09-01T05:10:01.847Z,48
2022-09-01T05:12:33.647Z,44
2022-09-01T05:15:06.256Z,47
2022-09-01T05:17:37.487Z,43
2022-09-01T05:20:10.485Z,45
2022-09-01T05:22:43.563Z,44
2022-09-01T05:25:16.553Z,44
2022-09-01T05:27:49.711Z,47
2022-09-01T05:30:22.747Z,44
2022-09-01T05:32:56.289Z,48
2022-09-01T05:35:33.489Z,46
2022-09-01T05:38:05.119Z,41
2022-09-01T05:40:38.440Z,36
2022-09-01T05:43:11.939Z,45
2022-09-01T05:46:07.717Z,35
2022-09-01T05:48:38.514Z,32
2022-09-01T05:51:51.334Z,36
2022-09-01T05:54:22.213Z,35
2022-09-01T05:56:55.699Z,40
2022-09-01T05:59:29.133Z,40
2022-09-01T06:02:02.522Z,38
2022-09-01T06:04:36.026Z,53
2022-09-01T06:07:15.730Z,35
2022-09-01T06:09:47.921Z,38
2022-09-01T06:12:20.823Z,37
2022-09-01T06:14:53.738Z,33
2022-09-01T06:17:26.735Z,34
2022-09-01T06:20:00.154Z,33
2022-09-01T06:22:33.460Z,38
2022-09-01T06:25:06.614Z,31
2022-09-01T06:27:39.555Z,39
2022-09-01T06:30:12.417Z,36
2022-09-01T06:32:45.953Z,29
2022-09-01T06:35:18.513Z,27
2022-09-01T06:37:51.745Z,32
2022-09-01T06:40:24.918Z,25
2022-09-01T06:42:58.309Z,26
2022-09-01T06:45:34.462Z,30
2022-09-01T06:48:06.227Z,33
2022-09-01T06:51:21.428Z,34
2022-09-01T06:53:52.362Z,36
2022-09-01T06:56:32.626Z,35
2022-09-01T06:59:04.093Z,40
2022-09-01T07:01:40.654Z,24
2022-09-01T07:04:14.173Z,24
2022-09-01T07:08:05.874Z,20
2022-09-01T07:12:08.931Z,20
2022-09-01T07:16:34.734Z,17
2022-09-01T07:46:00.735Z,16
2022-09-01T07:50:25.587Z,17
2022-09-01T07:54:07.080Z,16
2022-09-01T07:56:40.998Z,19
2022-09-01T07:59:16.052Z,16
2022-09-01T08:01:47.247Z,17
2022-09-01T08:04:20.294Z,20
2022-09-01T08:06:53.519Z,12
2022-09-01T08:09:44.519Z,18
2022-09-01T08:12:15.351Z,16
2022-09-01T08:14:47.714Z,16
2022-09-01T08:17:52.674Z,13
2022-09-01T08:20:24.187Z,16
2022-09-01T08:22:57.277Z,12
2022-09-01T08:25:30.336Z,16
2022-09-01T08:28:03.539Z,12
2022-09-01T08:30:36.524Z,19
2022-09-01T08:33:12.852Z,12
2022-09-01T08:35:43.963Z,21
2022-09-01T08:38:16.571Z,19
2022-09-01T08:40:49.793Z,16
2022-09-01T08:43:27.270Z,22
2022-09-01T08:45:59.473Z,19
2022-09-01T08:49:43.712Z,20
2022-09-01T08:52:16.134Z,24
2022-09-01T08:54:48.630Z,22
2022-09-01T08:57:21.212Z,27
2022-09-01T08:59:54.151Z,21
2022-09-01T09:02:28.059Z,32
2022-09-01T09:05:00.585Z,40
2022-09-01T09:07:33.264Z,23
2022-09-01T09:10:06.217Z,20
2022-09-01T09:12:49.736Z,20
2022-09-01T09:15:20.981Z,20
2022-09-01T09:18:00.867Z,19
2022-09-01T09:20:33.387Z,16
2022-09-01T09:23:06.506Z,23
2022-09-01T09:25:39.373Z,20
2022-09-01T09:28:13.204Z,18
2022-09-01T09:30:45.046Z,16
2022-09-01T09:33:53.950Z,18
2022-09-01T09:36:26.025Z,19
2022-09-01T09:38:58.690Z,13
2022-09-01T09:41:36.104Z,16
2022-09-01T09:44:11.859Z,23
2022-09-01T09:46:44.810Z,24
2022-09-01T09:49:17.806Z,29
2022-09-01T09:52:05.984Z,24
2022-09-01T09:54:39.084Z,20
2022-09-01T09:57:12.046Z,28
2022-09-01T10:00:02.180Z,28
2022-09-01T10:02:33.337Z,25
2022-09-01T10:05:06.374Z,22
2022-09-01T10:07:39.164Z,26
2022-09-01T10:10:13.640Z,24
2022-09-01T10:12:46.666Z,23
2022-09-01T10:15:19.681Z,28
2022-09-01T10:18:13.517Z,27
2022-09-01T10:21:04.596Z,25
2022-09-01T10:23:37.050Z,25
2022-09-01T10:26:15.153Z,24
2022-09-01T10:28:51.091Z,20
2022-09-01T10:31:33.723Z,24
2022-09-01T10:34:06.154Z,22
2022-09-01T10:36:38.777Z,20
2022-09-01T10:39:10.751Z,28
2022-09-01T10:41:43.720Z,28
2022-09-01T10:44:17.219Z,24
2022-09-01T10:46:58.817Z,25
2022-09-01T10:49:38.771Z,27
2022-09-01T10:52:16.543Z,21
2022-09-01T10:54:56.137Z,33
2022-09-01T10:57:30.924Z,32
2022-09-01T11:00:04.731Z,28
2022-09-01T11:03:34.197Z,28
2022-09-01T11:06:22.715Z,25
2022-09-01T11:08:57.219Z,28
2022-09-01T11:11:30.306Z,36
2022-09-01T11:14:03.408Z,28
2022-09-01T11:16:52.760Z,27
2022-09-01T11:19:28.142Z,28
2022-09-01T11:21:59.634Z,28
2022-09-01T11:24:32.869Z,32
2022-09-01T11:27:05.948Z,26
2022-09-01T11:29:39.040Z,32
2022-09-01T11:32:19.002Z,32
2022-09-01T11:34:51.099Z,29
2022-09-01T11:37:23.405Z,35
2022-09-01T11:39:58.991Z,29
2022-09-01T11:42:32.203Z,28
2022-09-01T11:45:06.182Z,28
2022-09-01T11:47:39.278Z,28
2022-09-01T11:50:12.400Z,26
2022-09-01T11:52:45.430Z,31
2022-09-01T11:55:18.321Z,28
2022-09-01T11:57:50.577Z,31
2022-09-01T12:00:23.308Z,28
2022-09-01T12:02:55.435Z,28
2022-09-01T12:05:28.441Z,31
2022-09-01T12:08:01.208Z,31
2022-09-01T12:10:33.352Z,32
2022-09-01T12:13:05.849Z,33
2022-09-01T12:16:17.766Z,29
2022-09-01T12:18:49.954Z,31
2022-09-01T12:21:22.494Z,25
2022-09-01T12:23:55.171Z,32
2022-09-01T12:26:27.763Z,35
2022-09-01T12:29:00.206Z,37
2022-09-01T12:31:33.258Z,36
2022-09-01T12:34:06.952Z,30
2022-09-01T12:36:39.505Z,36
2022-09-01T12:39:12.468Z,32
2022-09-01T12:41:45.289Z,35
2022-09-01T12:44:18.201Z,30
2022-09-01T12:46:50.647Z,31
2022-09-01T12:49:23.203Z,32
2022-09-01T12:51:56.162Z,32
2022-09-01T12:54:29.187Z,36
2022-09-01T12:57:02.295Z,30
2022-09-01T12:59:38.106Z,33
2022-09-01T13:02:10.332Z,33
2022-09-01T13:04:43.352Z,32
2022-09-01T13:07:15.881Z,35
2022-09-01T13:09:48.125Z,37
2022-09-01T13:12:20.201Z,44
2022-09-01T13:14:52.752Z,40
2022-09-01T13:17:25.516Z,36
2022-09-01T13:19:57.976Z,44
2022-09-01T13:22:30.601Z,36
2022-09-01T13:25:03.965Z,32
2022-09-01T13:27:36.640Z,39
2022-09-01T13:30:08.945Z,35
2022-09-01T13:33:21.737Z,34
2022-09-01T13:36:54.203Z,34
2022-09-01T13:39:26.112Z,37
2022-09-01T13:41:58.147Z,36
2022-09-01T13:44:31.202Z,42
2022-09-01T13:47:34.058Z,44
2022-09-01T13:50:13.177Z,38
2022-09-01T13:53:43.598Z,32
2022-09-01T13:56:16.110Z,35
2022-09-01T13:58:49.010Z,36
2022-09-01T14:01:20.738Z,35
2022-09-01T14:04:00.972Z,32
2022-09-01T14:06:32.205Z,35
2022-09-01T14:09:05.102Z,32
2022-09-01T14:11:38.508Z,33
2022-09-01T14:14:10.799Z,31
2022-09-01T14:16:43.521Z,35
2022-09-01T14:19:15.408Z,33
2022-09-01T14:21:48.891Z,33
2022-09-01T14:24:20.984Z,32
2022-09-01T14:26:53.740Z,36
2022-09-01T14:29:26.547Z,35
2022-09-01T14:31:58.906Z,36
2022-09-01T14:34:31.599Z,40
2022-09-01T14:37:04.103Z,39
2022-09-01T14:39:36.592Z,43
2022-09-01T14:42:09.009Z,36
2022-09-01T14:44:41.269Z,36
2022-09-01T14:47:21.346Z,36
2022-09-01T14:49:51.863Z,32
2022-09-01T14:52:24.256Z,28
2022-09-01T14:54:56.996Z,30
2022-09-01T14:57:38.970Z,24
2022-09-01T15:00:09.625Z,28
2022-09-01T15:02:42.032Z,40
2022-09-01T15:05:15.248Z,32
2022-09-01T15:07:47.490Z,28
2022-09-01T20:21:57.980Z,30
2022-09-01T20:24:28.919Z,32
2022-09-01T20:27:00.587Z,32
2022-09-01T20:29:35.113Z,20
2022-09-01T20:32:07.400Z,28
2022-09-01T20:34:40.145Z,24
2022-09-01T20:37:12.431Z,29
2022-09-01T20:39:45.082Z,27
2022-09-01T20:42:17.581Z,32
2022-09-01T20:44:50.314Z,27
2022-09-01T20:47:22.835Z,27
2022-09-01T20:49:55.337Z,28
2022-09-01T20:52:27.927Z,32
2022-09-01T20:55:01.525Z,29
2022-09-01T20:57:34.399Z,27
2022-09-01T21:00:07.315Z,29
2022-09-01T21:02:40.183Z,31
2022-09-01T21:05:12.847Z,28
2022-09-01T21:07:45.340Z,29
2022-09-01T21:10:17.923Z,32
2022-09-01T21:12:50.503Z,26
2022-09-01T21:15:23.105Z,29
2022-09-01T21:17:55.807Z,29
2022-09-01T21:20:28.400Z,27
2022-09-01T21:23:07.251Z,31
2022-09-01T21:25:41.429Z,32
2022-09-01T21:28:14.326Z,32
2022-09-01T21:30:47.089Z,33
2022-09-01T21:33:19.860Z,31
2022-09-01T21:35:52.444Z,36
2022-09-01T21:38:24.694Z,28
2022-09-01T21:40:57.180Z,33
2022-09-01T21:43:29.283Z,29
2022-09-01T21:46:02.626Z,29
2022-09-01T21:48:34.773Z,35
2022-09-01T21:51:07.053Z,28
2022-09-01T21:53:39.417Z,29
2022-09-01T21:56:11.883Z,28
2022-09-01T21:58:50.648Z,27
2022-09-01T22:01:22.319Z,28
2022-09-01T22:03:55.166Z,29
2022-09-01T22:06:27.292Z,37
2022-09-01T22:08:59.553Z,32
2022-09-01T22:11:32.108Z,35
2022-09-01T22:14:04.925Z,28
2022-09-01T22:16:37.714Z,28
2022-09-01T22:19:09.763Z,24
2022-09-01T22:21:42.211Z,36
2022-09-01T22:24:19.883Z,27
2022-09-01T22:26:51.766Z,28
2022-09-01T22:29:24.204Z,28
2022-09-01T22:31:57.165Z,31
2022-09-01T22:34:29.230Z,30
2022-09-01T22:37:01.820Z,27
2022-09-01T22:39:34.766Z,27
2022-09-01T22:42:07.501Z,25
2022-09-01T22:44:40.047Z,26
2022-09-01T22:47:13.985Z,25
2022-09-01T22:49:46.606Z,27
2022-09-01T22:52:19.174Z,32
2022-09-01T22:54:52.724Z,22
2022-09-01T22:57:24.975Z,21
2022-09-01T22:59:57.862Z,26
2022-09-01T23:02:29.635Z,29
2022-09-01T23:05:06.381Z,23
2022-09-01T23:07:40.339Z,28
2022-09-01T23:10:11.979Z,25
2022-09-01T23:12:45.151Z,27
2022-09-01T23:15:17.506Z,24
2022-09-01T23:17:50.207Z,20
2022-09-01T23:20:23.434Z,24
2022-09-01T23:22:56.067Z,24
2022-09-01T23:25:29.424Z,26
2022-09-01T23:28:01.987Z,25
2022-09-01T23:30:34.858Z,25
2022-09-01T23:33:07.661Z,24
2022-09-01T23:35:40.304Z,24
2022-09-01T23:38:12.925Z,24
2022-09-01T23:40:45.905Z,20
2022-09-01T23:43:18.830Z,19
2022-09-01T23:45:51.816Z,19
2022-09-01T23:48:24.870Z,19
2022-09-01T23:50:57.284Z,21
2022-09-01T23:53:30.268Z,17
2022-09-01T23:56:03.070Z,23
2022-09-01T23:58:35.764Z,20
